Time;durP1;ratioP1;P1;durP2;ratioP2;P2;SDS_P1;SDS_P2;PMS_P1;PMS_P2;Temp;Humidity;BMP_temperature;BMP_pressure;BME280_temperature;BME280_humidity;BME280_pressure;Samples;Min_cycle;Max_cycle;Signal;HPM_P1;HPM_P2
2023/06/09 00:01:35;;;;;;;9.90;3.80;;;11.50;99.90;;;;;;4952663;28;20062;-86
2023/06/09 00:04:06;;;;;;;20.50;4.63;;;11.50;99.90;;;;;;4969832;28;20055;-87
2023/06/09 00:06:32;;;;;;;14.30;5.10;;;11.50;99.90;;;;;;4936277;28;20043;-86
2023/06/09 00:08:57;;;;;;;11.13;4.38;;;11.50;99.90;;;;;;4968311;28;20064;-86
2023/06/09 00:11:23;;;;;;;17.63;5.13;;;11.50;99.90;;;;;;4936170;28;20054;-87
2023/06/09 00:13:49;;;;;;;17.60;4.70;;;11.50;99.90;;;;;;4952677;28;20043;-87
2023/06/09 00:16:15;;;;;;;14.57;4.78;;;11.50;99.90;;;;;;4969589;28;20560;-86
2023/06/09 00:18:43;;;;;;;12.98;4.88;;;11.50;99.90;;;;;;4968076;28;20047;-86
2023/06/09 00:21:10;;;;;;;13.52;4.85;;;11.50;99.90;;;;;;4969825;28;20122;-86
2023/06/09 00:23:36;;;;;;;14.55;4.60;;;11.50;99.90;;;;;;4968238;28;20039;-86
2023/06/09 00:26:02;;;;;;;11.50;4.95;;;11.40;99.90;;;;;;4968284;28;20108;-86
2023/06/09 00:28:28;;;;;;;13.50;5.38;;;13.10;99.90;;;;;;4951849;28;20134;-85
2023/06/09 00:30:53;;;;;;;16.20;5.35;;;11.40;99.90;;;;;;4951662;28;20133;-85
2023/06/09 00:33:19;;;;;;;11.38;4.30;;;11.40;99.90;;;;;;4951959;28;20043;-85
2023/06/09 00:35:45;;;;;;;14.48;4.72;;;11.40;99.90;;;;;;4951910;28;20046;-85
2023/06/09 00:38:10;;;;;;;18.60;4.70;;;11.40;99.90;;;;;;4951838;28;20490;-85
2023/06/09 00:40:36;;;;;;;11.65;5.20;;;11.40;99.90;;;;;;4969489;28;20046;-85
2023/06/09 00:43:02;;;;;;;13.70;5.15;;;11.40;99.90;;;;;;4951636;28;20160;-85
2023/06/09 00:45:28;;;;;;;16.70;4.55;;;11.40;99.90;;;;;;4919971;28;20051;-86
2023/06/09 00:47:54;;;;;;;10.82;4.97;;;11.40;99.90;;;;;;4969488;28;20050;-85
2023/06/09 00:50:20;;;;;;;13.13;4.70;;;11.30;99.90;;;;;;4951736;28;20043;-85
2023/06/09 00:52:48;;;;;;;8.07;4.45;;;11.40;99.90;;;;;;4969100;28;20089;-86
2023/06/09 00:55:16;;;;;;;14.02;5.13;;;11.40;99.90;;;;;;4969382;28;20134;-85
2023/06/09 00:57:43;;;;;;;13.90;5.00;;;11.30;99.90;;;;;;4951887;28;20480;-85
2023/06/09 01:00:12;;;;;;;12.93;5.63;;;11.30;99.90;;;;;;4967608;28;20521;-85
2023/06/09 01:02:38;;;;;;;15.45;5.10;;;11.30;99.90;;;;;;4951640;28;20047;-86
2023/06/09 01:05:06;;;;;;;11.68;5.22;;;11.30;99.90;;;;;;4951687;28;20100;-85
2023/06/09 01:07:41;;;;;;;11.05;5.45;;;11.30;99.90;;;;;;4936024;28;20494;-85
2023/06/09 01:10:18;;;;;;;15.27;5.60;;;11.70;99.90;;;;;;4949004;28;20049;-85
2023/06/09 01:13:06;;;;;;;13.23;5.10;;;11.30;99.90;;;;;;4988232;28;20097;-86
2023/06/09 01:15:37;;;;;;;17.98;5.43;;;11.90;99.90;;;;;;4953051;28;20050;-86
2023/06/09 01:18:04;;;;;;;12.73;5.55;;;11.30;99.90;;;;;;4952216;28;20083;-85
2023/06/09 01:21:14;;;;;;;9.98;5.47;;;11.30;99.90;;;;;;4951605;28;20047;-86
2023/06/09 01:24:14;;;;;;;14.75;4.57;;;11.30;99.90;;;;;;4968876;28;20050;-85
2023/06/09 01:26:40;;;;;;;11.20;4.93;;;11.30;99.90;;;;;;4950996;28;20534;-86
2023/06/09 01:29:07;;;;;;;13.23;4.78;;;11.30;99.90;;;;;;4935149;28;20488;-86
2023/06/09 01:31:33;;;;;;;9.32;5.72;;;11.30;99.90;;;;;;4968285;28;20046;-86
2023/06/09 01:34:01;;;;;;;16.75;5.63;;;11.20;99.90;;;;;;4968736;28;20038;-85
2023/06/09 01:36:28;;;;;;;12.75;5.55;;;11.20;99.90;;;;;;4950815;28;20058;-86
2023/06/09 01:38:54;;;;;;;15.32;5.95;;;11.20;99.90;;;;;;4935287;28;20069;-86
2023/06/09 01:41:20;;;;;;;15.38;5.53;;;11.40;99.90;;;;;;4950742;28;20356;-86
2023/06/09 01:43:46;;;;;;;14.07;5.53;;;11.20;99.90;;;;;;4967207;28;20066;-86
2023/06/09 01:46:12;;;;;;;13.05;5.45;;;11.80;99.90;;;;;;4950922;28;20057;-86
2023/06/09 01:48:54;;;;;;;12.95;4.90;;;11.20;99.90;;;;;;4968319;28;20039;-86
2023/06/09 01:51:48;;;;;;;17.75;6.00;;;11.20;99.90;;;;;;4968287;28;20047;-86
2023/06/09 01:54:20;;;;;;;13.90;5.43;;;11.20;99.90;;;;;;4952287;28;20147;-86
2023/06/09 01:56:55;;;;;;;12.40;4.63;;;11.20;99.90;;;;;;4950681;28;20126;-85
2023/06/09 01:59:28;;;;;;;13.00;4.90;;;11.20;99.90;;;;;;4968219;28;20391;-85
2023/06/09 02:01:55;;;;;;;;;;;11.30;99.90;;;;;;4950620;28;20046;-86
2023/06/09 02:04:25;;;;;;;12.27;5.05;;;12.20;99.90;;;;;;4951104;28;19975;-85
2023/06/09 02:06:52;;;;;;;13.35;5.30;;;11.20;99.90;;;;;;4950717;28;20043;-85
2023/06/09 02:09:17;;;;;;;15.50;5.70;;;11.20;99.90;;;;;;4940022;28;20051;-85
2023/06/09 02:11:50;;;;;;;12.38;6.15;;;12.20;99.90;;;;;;4974937;28;20062;-85
2023/06/09 02:14:16;;;;;;;16.42;5.10;;;11.20;99.90;;;;;;4937149;28;20069;-84
2023/06/09 02:16:41;;;;;;;10.55;4.75;;;11.20;99.90;;;;;;4952315;28;20442;-85
2023/06/09 02:19:07;;;;;;;11.55;4.60;;;11.20;99.90;;;;;;4968836;28;20049;-85
2023/06/09 02:21:33;;;;;;;7.72;4.68;;;11.60;99.90;;;;;;4967293;28;20058;-85
2023/06/09 02:23:58;;;;;;;12.88;4.80;;;11.20;99.90;;;;;;4950768;28;20078;-85
2023/06/09 02:26:24;;;;;;;12.05;4.75;;;11.20;99.90;;;;;;4935257;28;20047;-85
2023/06/09 02:28:50;;;;;;;14.13;5.88;;;11.20;99.90;;;;;;4968194;28;20047;-85
2023/06/09 02:31:15;;;;;;;13.15;4.85;;;12.50;99.90;;;;;;4968429;28;20073;-85
2023/06/09 02:33:41;;;;;;;11.68;4.53;;;11.20;99.90;;;;;;4966593;28;20047;-85
2023/06/09 02:36:07;;;;;;;12.10;5.63;;;11.20;99.90;;;;;;4967812;28;20122;-85
2023/06/09 02:38:33;;;;;;;17.17;5.00;;;11.30;99.90;;;;;;4968219;28;20051;-86
2023/06/09 02:40:58;;;;;;;18.30;5.35;;;11.20;99.90;;;;;;4950290;28;20527;-85
2023/06/09 02:43:24;;;;;;;14.43;5.40;;;11.20;99.90;;;;;;4950774;28;20130;-85
2023/06/09 02:45:50;;;;;;;8.70;5.30;;;11.20;99.90;;;;;;4950624;28;20061;-85
2023/06/09 02:48:15;;;;;;;13.57;6.03;;;12.00;99.90;;;;;;4965941;28;20053;-85
2023/06/09 02:50:41;;;;;;;15.75;6.28;;;11.20;99.90;;;;;;4983098;28;20054;-85
2023/06/09 02:53:07;;;;;;;11.68;5.65;;;11.20;99.90;;;;;;4981883;28;20051;-86
2023/06/09 02:55:33;;;;;;;10.90;5.53;;;11.50;99.90;;;;;;4963148;28;20043;-85
2023/06/09 02:57:59;;;;;;;14.93;5.57;;;11.10;99.90;;;;;;4950758;28;20058;-85
2023/06/09 03:00:25;;;;;;;16.30;4.47;;;11.10;99.90;;;;;;4950338;28;20050;-85
2023/06/09 03:02:51;;;;;;;18.55;5.85;;;11.10;99.90;;;;;;4951070;28;20043;-85
2023/06/09 03:05:20;;;;;;;10.15;5.22;;;11.10;99.90;;;;;;4966372;28;20057;-85
2023/06/09 03:07:50;;;;;;;10.82;4.90;;;11.10;99.90;;;;;;4950026;28;20055;-85
2023/06/09 03:10:18;;;;;;;10.60;5.78;;;11.10;99.90;;;;;;4965992;28;20054;-85
2023/06/09 03:12:43;;;;;;;23.48;6.20;;;11.20;99.90;;;;;;4949867;28;20402;-85
2023/06/09 03:15:09;;;;;;;17.77;5.70;;;11.10;99.90;;;;;;4952991;28;20138;-86
2023/06/09 03:17:35;;;;;;;14.95;4.82;;;11.10;99.90;;;;;;4952983;28;20483;-85
2023/06/09 03:20:01;;;;;;;12.68;5.60;;;11.40;99.90;;;;;;4952984;28;20057;-85
2023/06/09 03:22:27;;;;;;;16.80;5.78;;;11.40;99.90;;;;;;4953290;28;20062;-85
2023/06/09 03:24:53;;;;;;;11.40;6.07;;;11.10;99.90;;;;;;4952526;28;20145;-86
2023/06/09 03:27:19;;;;;;;9.43;5.50;;;11.80;99.90;;;;;;4952796;28;20181;-86
2023/06/09 03:29:44;;;;;;;21.08;5.57;;;11.20;99.90;;;;;;4969210;28;20042;-86
2023/06/09 03:32:10;;;;;;;14.85;6.15;;;12.00;99.90;;;;;;4971167;28;20488;-85
2023/06/09 03:34:36;;;;;;;14.07;5.30;;;11.30;99.90;;;;;;4953028;28;20088;-86
2023/06/09 03:37:04;;;;;;;15.05;5.70;;;11.20;99.90;;;;;;4969047;28;20077;-85
2023/06/09 03:39:29;;;;;;;13.38;5.88;;;11.20;99.90;;;;;;4953044;28;20042;-85
2023/06/09 03:41:56;;;;;;;14.63;5.90;;;11.30;99.90;;;;;;4952674;28;20054;-86
2023/06/09 03:44:22;;;;;;;18.20;5.43;;;11.30;99.90;;;;;;4969897;28;20074;-86
2023/06/09 03:46:48;;;;;;;15.18;5.55;;;12.30;99.90;;;;;;4952538;28;20139;-84
2023/06/09 03:49:14;;;;;;;14.75;5.43;;;11.30;99.90;;;;;;4968731;28;20043;-85
2023/06/09 03:51:39;;;;;;;18.98;5.32;;;11.40;99.90;;;;;;4970258;28;20055;-86
2023/06/09 03:54:06;;;;;;;10.80;5.03;;;12.90;99.90;;;;;;4952410;28;20047;-85
2023/06/09 03:56:32;;;;;;;19.05;5.97;;;12.00;99.90;;;;;;4952978;28;20047;-85
2023/06/09 03:58:58;;;;;;;13.15;5.18;;;11.50;99.90;;;;;;4952358;28;20054;-85
2023/06/09 04:01:25;;;;;;;16.98;5.97;;;11.50;99.90;;;;;;4952851;28;20046;-84
2023/06/09 04:03:51;;;;;;;14.02;5.82;;;11.50;99.90;;;;;;4970047;28;20118;-85
2023/06/09 04:06:17;;;;;;;16.75;5.88;;;11.60;99.90;;;;;;4970177;28;20058;-84
2023/06/09 04:08:44;;;;;;;17.20;5.45;;;11.60;99.90;;;;;;4969837;28;20047;-84
2023/06/09 04:11:10;;;;;;;11.45;5.55;;;11.70;99.90;;;;;;4969693;28;20047;-84
2023/06/09 04:13:35;;;;;;;12.90;5.13;;;11.70;99.90;;;;;;4968233;28;20084;-85
2023/06/09 04:16:01;;;;;;;15.85;6.38;;;11.80;99.90;;;;;;4952344;28;20130;-84
2023/06/09 04:18:27;;;;;;;19.08;5.97;;;11.80;99.90;;;;;;4952287;28;20043;-84
2023/06/09 04:20:53;;;;;;;12.15;6.50;;;11.80;99.90;;;;;;4968721;28;20452;-84
2023/06/09 04:23:18;;;;;;;14.10;5.30;;;12.10;99.90;;;;;;4955311;28;20054;-84
2023/06/09 04:25:45;;;;;;;10.10;5.57;;;11.90;99.90;;;;;;4977843;28;20043;-84
2023/06/09 04:28:11;;;;;;;14.07;5.07;;;12.00;99.90;;;;;;4982596;28;20046;-84
2023/06/09 04:30:38;;;;;;;13.27;5.20;;;12.10;99.90;;;;;;4986265;28;20038;-85
2023/06/09 04:33:04;;;;;;;12.93;5.32;;;12.10;99.90;;;;;;4964747;28;20076;-84
2023/06/09 04:35:32;;;;;;;7.78;4.03;;;12.20;99.90;;;;;;4954985;28;20047;-83
2023/06/09 04:38:00;;;;;;;11.15;4.47;;;12.20;99.90;;;;;;4969736;28;20406;-84
2023/06/09 04:40:27;;;;;;;13.48;4.40;;;12.30;99.90;;;;;;4952267;28;20043;-84
2023/06/09 04:42:56;;;;;;;14.88;5.28;;;12.40;99.90;;;;;;4951886;28;20466;-86
2023/06/09 04:45:34;;;;;;;12.40;5.03;;;12.50;99.90;;;;;;4969285;28;20081;-85
2023/06/09 04:48:00;;;;;;;15.27;4.80;;;12.60;99.90;;;;;;4951416;28;20055;-85
2023/06/09 04:50:29;;;;;;;12.73;4.72;;;12.70;99.90;;;;;;4969280;28;20398;-86
2023/06/09 04:52:57;;;;;;;12.13;4.50;;;12.70;99.90;;;;;;4935056;28;20070;-86
2023/06/09 04:55:25;;;;;;;13.77;4.40;;;12.80;99.90;;;;;;4951084;28;20173;-86
2023/06/09 04:57:55;;;;;;;20.65;4.25;;;11.50;99.90;;;;;;4952553;28;20066;-87
2023/06/09 05:00:22;;;;;;;7.75;4.20;;;12.90;99.90;;;;;;4937737;28;20145;-91
2023/06/09 05:02:49;;;;;;;13.95;4.07;;;13.00;99.90;;;;;;4942202;28;20043;-89
2023/06/09 05:05:15;;;;;;;16.15;4.45;;;13.10;99.90;;;;;;4938944;28;20106;-90
2023/06/09 05:07:41;;;;;;;9.88;3.95;;;13.20;99.90;;;;;;4955125;28;20086;-88
2023/06/09 05:10:08;;;;;;;13.20;4.05;;;13.20;99.90;;;;;;4938861;28;20057;-89
2023/06/09 05:12:36;;;;;;;12.32;4.30;;;13.30;99.90;;;;;;4951773;28;20057;-86
2023/06/09 05:15:03;;;;;;;15.07;4.07;;;13.30;99.90;;;;;;4951703;28;20066;-85
2023/06/09 05:17:30;;;;;;;11.93;4.45;;;13.40;99.90;;;;;;4935380;28;20541;-85
2023/06/09 05:19:56;;;;;;;11.93;3.92;;;13.50;99.90;;;;;;4969005;28;20566;-85
2023/06/09 05:22:21;;;;;;;21.35;5.00;;;13.60;99.90;;;;;;4935520;28;20123;-87
2023/06/09 05:24:47;;;;;;;9.23;3.92;;;13.60;99.90;;;;;;4968243;28;20076;-84
2023/06/09 05:27:13;;;;;;;17.35;4.85;;;13.70;99.90;;;;;;4951400;28;20047;-84
2023/06/09 05:29:38;;;;;;;15.80;4.55;;;13.70;99.90;;;;;;4967179;28;20039;-88
2023/06/09 05:32:05;;;;;;;14.77;5.00;;;13.80;99.90;;;;;;4951450;28;20050;-86
2023/06/09 05:34:31;;;;;;;15.45;5.05;;;13.90;99.90;;;;;;4951439;28;20050;-83
2023/06/09 05:36:57;;;;;;;16.40;4.03;;;13.90;99.90;;;;;;4950112;28;20066;-83
2023/06/09 05:39:22;;;;;;;15.35;3.85;;;14.00;99.90;;;;;;4968728;28;20046;-84
2023/06/09 05:41:48;;;;;;;17.00;5.35;;;14.10;99.90;;;;;;4951250;28;20049;-86
2023/06/09 05:44:14;;;;;;;7.72;3.88;;;14.20;99.90;;;;;;4934814;28;20062;-82
2023/06/09 05:46:43;;;;;;;13.38;4.53;;;14.30;99.90;;;;;;4969053;28;20039;-83
2023/06/09 05:49:08;;;;;;;12.63;4.75;;;15.70;99.90;;;;;;4950952;28;20054;-88
2023/06/09 05:51:35;;;;;;;11.77;3.90;;;14.50;99.90;;;;;;4935023;28;20115;-85
2023/06/09 05:54:01;;;;;;;16.60;3.70;;;14.60;99.90;;;;;;4950767;28;20051;-83
2023/06/09 05:56:27;;;;;;;12.68;3.95;;;14.70;99.90;;;;;;4950635;28;20043;-83
2023/06/09 05:59:03;;;;;;;11.27;4.20;;;14.80;99.90;;;;;;4967277;28;20388;-82
2023/06/09 06:01:34;;;;;;;10.20;3.92;;;14.90;99.90;;;;;;4952394;28;20137;-82
2023/06/09 06:04:00;;;;;;;11.50;3.63;;;15.00;99.90;;;;;;4971462;28;20043;-82
2023/06/09 06:06:25;;;;;;;12.20;4.05;;;15.00;99.90;;;;;;4953134;28;20096;-82
2023/06/09 06:08:51;;;;;;;9.25;3.97;;;15.10;99.90;;;;;;4936041;28;20116;-82
2023/06/09 06:11:17;;;;;;;8.23;3.65;;;15.20;99.90;;;;;;4951403;28;20050;-83
2023/06/09 06:13:43;;;;;;;12.30;3.95;;;15.30;99.90;;;;;;4967710;28;20054;-83
2023/06/09 06:16:08;;;;;;;12.10;3.85;;;15.30;99.90;;;;;;4967205;28;20055;-82
2023/06/09 06:18:34;;;;;;;9.20;3.63;;;15.40;99.90;;;;;;4950281;28;20093;-83
2023/06/09 06:21:00;;;;;;;7.25;3.65;;;15.40;99.90;;;;;;4968085;28;20046;-83
2023/06/09 06:23:26;;;;;;;12.60;3.85;;;15.50;99.90;;;;;;4950058;28;20051;-81
2023/06/09 06:25:52;;;;;;;10.32;3.95;;;15.50;99.90;;;;;;4967912;28;20058;-81
2023/06/09 06:28:19;;;;;;;10.55;4.93;;;15.60;99.90;;;;;;4950293;28;20046;-81
2023/06/09 06:30:45;;;;;;;7.68;3.65;;;15.70;99.90;;;;;;4934379;28;20061;-81
2023/06/09 06:33:11;;;;;;;10.30;4.10;;;15.70;99.90;;;;;;4950514;28;20057;-81
2023/06/09 06:35:37;;;;;;;8.10;3.38;;;15.80;99.90;;;;;;4966201;28;20050;-81
2023/06/09 06:38:03;;;;;;;11.55;3.95;;;15.90;99.90;;;;;;4949638;28;20093;-82
2023/06/09 06:40:28;;;;;;;251.35;30.10;;;15.90;99.90;;;;;;4932743;28;20127;-82
2023/06/09 06:42:54;;;;;;;40.67;7.60;;;16.00;99.90;;;;;;4948907;28;20101;-82
2023/06/09 06:45:21;;;;;;;21.52;5.43;;;16.20;99.90;;;;;;4949427;28;20053;-82
2023/06/09 06:47:49;;;;;;;366.00;52.95;;;16.20;99.90;;;;;;4965354;28;20057;-82
2023/06/09 06:50:15;;;;;;;35.72;7.82;;;16.30;99.90;;;;;;4953812;28;20109;-83
2023/06/09 06:52:41;;;;;;;14.85;3.95;;;16.50;99.90;;;;;;4938276;28;20103;-82
2023/06/09 06:55:08;;;;;;;11.80;3.50;;;16.50;99.90;;;;;;4975170;28;20042;-82
2023/06/09 06:57:38;;;;;;;21.90;4.35;;;16.70;99.90;;;;;;4955880;28;20047;-82
2023/06/09 07:00:14;;;;;;;20.38;5.03;;;16.80;99.90;;;;;;4953195;28;20050;-83
2023/06/09 07:02:40;;;;;;;14.07;3.72;;;16.90;99.90;;;;;;4952617;28;20054;-82
2023/06/09 07:05:06;;;;;;;8.73;3.13;;;17.00;99.90;;;;;;4951740;28;20075;-82
2023/06/09 07:07:32;;;;;;;14.77;4.00;;;17.10;99.90;;;;;;4968624;28;20058;-82
2023/06/09 07:09:58;;;;;;;12.02;3.53;;;17.30;99.90;;;;;;4969132;28;20042;-85
2023/06/09 07:12:24;;;;;;;22.38;5.00;;;17.40;99.90;;;;;;4970304;28;20510;-85
2023/06/09 07:14:50;;;;;;;10.88;3.63;;;17.50;99.90;;;;;;4969800;28;20047;-84
2023/06/09 07:17:16;;;;;;;10.55;3.40;;;17.60;99.90;;;;;;4970347;28;20489;-84
2023/06/09 07:19:42;;;;;;;19.70;4.75;;;17.70;99.90;;;;;;4970067;28;20050;-84
2023/06/09 07:22:09;;;;;;;12.43;3.42;;;17.80;99.90;;;;;;4951835;28;20058;-82
2023/06/09 07:24:34;;;;;;;8.65;3.42;;;17.90;99.90;;;;;;4936611;28;20486;-82
2023/06/09 07:27:00;;;;;;;11.10;3.55;;;18.00;99.90;;;;;;4936114;28;20043;-83
2023/06/09 07:29:27;;;;;;;11.98;3.28;;;18.10;99.90;;;;;;4971170;28;20438;-82
2023/06/09 07:31:52;;;;;;;9.27;3.10;;;18.30;99.90;;;;;;4952523;28;20180;-83
2023/06/09 07:34:18;;;;;;;11.70;3.90;;;18.40;99.90;;;;;;4970772;28;20050;-83
2023/06/09 07:36:50;;;;;;;13.13;3.75;;;18.50;99.90;;;;;;4970097;28;20698;-83
2023/06/09 07:39:17;;;;;;;8.48;3.47;;;18.60;99.90;;;;;;4969895;28;20114;-83
2023/06/09 07:41:42;;;;;;;8.48;3.42;;;18.80;99.90;;;;;;4971810;28;20111;-83
2023/06/09 07:44:08;;;;;;;8.65;3.13;;;18.80;99.90;;;;;;4957708;28;20579;-82
2023/06/09 07:46:34;;;;;;;11.93;3.67;;;18.90;99.90;;;;;;4989693;28;20519;-83
2023/06/09 07:49:00;;;;;;;11.90;4.30;;;19.00;99.90;;;;;;4987692;28;20043;-81
2023/06/09 07:51:26;;;;;;;13.18;3.85;;;19.20;99.90;;;;;;4952819;28;20055;-82
2023/06/09 07:53:52;;;;;;;13.05;3.30;;;19.40;99.90;;;;;;4968662;28;20173;-82
2023/06/09 07:56:18;;;;;;;10.10;3.83;;;19.60;99.90;;;;;;4968526;28;20118;-83
2023/06/09 07:58:44;;;;;;;11.90;3.50;;;19.70;99.90;;;;;;4952728;28;20547;-84
2023/06/09 08:01:10;;;;;;;9.30;4.80;;;19.70;99.90;;;;;;4967908;28;20487;-84
2023/06/09 08:03:36;;;;;;;6.68;3.38;;;19.80;99.90;;;;;;4968395;28;20541;-84
2023/06/09 08:06:02;;;;;;;7.05;2.83;;;19.90;99.90;;;;;;4969091;28;20058;-83
2023/06/09 08:08:31;;;;;;;9.75;3.35;;;20.00;99.90;;;;;;4952396;28;20046;-84
2023/06/09 08:11:00;;;;;;;11.40;3.63;;;20.10;99.90;;;;;;4969398;28;20429;-93
2023/06/09 08:13:26;;;;;;;11.48;3.30;;;20.30;99.90;;;;;;4936110;28;20035;-88
2023/06/09 08:15:52;;;;;;;30.00;6.80;;;20.40;99.90;;;;;;4951899;28;20077;-89
2023/06/09 08:18:18;;;;;;;35.13;7.00;;;20.50;99.90;;;;;;4934924;28;20047;-91
2023/06/09 08:20:43;;;;;;;12.50;3.40;;;20.60;99.90;;;;;;4936772;28;20100;-91
2023/06/09 08:23:10;;;;;;;13.07;4.57;;;20.60;99.90;;;;;;4921280;28;20054;-90
2023/06/09 08:25:36;;;;;;;21.85;5.10;;;20.70;99.90;;;;;;4952937;28;20055;-93
2023/06/09 08:28:02;;;;;;;15.85;4.35;;;20.90;99.90;;;;;;4951339;28;20126;-91
2023/06/09 08:30:28;;;;;;;8.95;2.92;;;21.00;99.90;;;;;;4936104;28;20059;-91
2023/06/09 08:32:53;;;;;;;10.95;4.10;;;21.20;99.90;;;;;;4947000;28;20112;-94
2023/06/09 08:35:21;;;;;;;12.15;4.03;;;21.30;99.90;;;;;;4935248;28;20054;-92
2023/06/09 08:37:47;;;;;;;21.13;5.03;;;21.30;99.90;;;;;;4942207;29;20467;-93
2023/06/09 08:40:13;;;;;;;8.70;3.33;;;21.40;99.90;;;;;;4918303;29;20050;-95
2023/06/09 08:42:39;;;;;;;6.43;3.13;;;21.50;99.90;;;;;;4934645;29;20043;-92
2023/06/09 08:45:06;;;;;;;9.85;3.67;;;21.40;99.90;;;;;;4933457;28;20043;-93
2023/06/09 08:47:33;;;;;;;7.25;3.05;;;21.70;99.90;;;;;;4950562;29;20094;-91
2023/06/09 08:50:02;;;;;;;28.65;6.00;;;22.00;99.90;;;;;;4935315;29;20054;-90
2023/06/09 08:55:12;;;;;;;25.48;6.78;;;22.00;99.90;;;;;;5089588;28;20089;-80
2023/06/09 08:57:40;;;;;;;9.90;3.28;;;22.10;99.90;;;;;;5090477;28;20052;-81
2023/06/09 09:00:11;;;;;;;7.63;2.80;;;22.20;99.90;;;;;;5091844;28;20448;-81
2023/06/09 09:02:37;;;;;;;7.38;3.00;;;22.30;99.90;;;;;;5091090;28;20044;-81
2023/06/09 09:05:02;;;;;;;11.32;3.38;;;22.40;99.90;;;;;;5090216;28;20055;-81
2023/06/09 09:07:28;;;;;;;13.52;4.00;;;22.50;99.90;;;;;;5073997;28;20093;-81
2023/06/09 09:09:54;;;;;;;6.43;2.75;;;22.60;99.90;;;;;;5091031;28;20104;-81
2023/06/09 09:12:21;;;;;;;45.53;8.85;;;22.70;99.90;;;;;;5091192;28;20043;-82
2023/06/09 09:14:47;;;;;;;11.38;3.42;;;22.80;99.90;;;;;;5091160;28;20048;-82
2023/06/09 09:17:15;;;;;;;54.60;9.40;;;22.80;99.90;;;;;;5092070;28;20165;-82
2023/06/09 09:19:51;;;;;;;6.93;3.05;;;22.90;99.90;;;;;;5091960;28;20048;-82
2023/06/09 09:22:17;;;;;;;8.23;2.67;;;23.10;99.90;;;;;;5091208;28;20051;-79
2023/06/09 09:24:49;;;;;;;6.82;2.90;;;23.20;99.90;;;;;;5090443;28;20415;-81
2023/06/09 09:27:26;;;;;;;7.72;3.03;;;23.40;99.90;;;;;;5089889;28;20058;-81
2023/06/09 09:29:51;;;;;;;9.57;3.22;;;23.50;99.90;;;;;;5057969;28;20050;-80
2023/06/09 09:32:24;;;;;;;88.22;13.48;;;23.60;99.90;;;;;;5089497;28;20123;-80
2023/06/09 09:34:50;;;;;;;9.85;3.45;;;23.70;99.90;;;;;;5089953;28;20051;-82
2023/06/09 09:37:16;;;;;;;8.18;2.80;;;23.90;99.90;;;;;;5073318;28;20387;-81
2023/06/09 09:39:52;;;;;;;8.75;2.97;;;24.00;99.90;;;;;;5090854;28;20039;-81
2023/06/09 09:42:19;;;;;;;40.53;6.95;;;24.10;99.90;;;;;;5091373;28;20040;-79
2023/06/09 09:44:47;;;;;;;10.02;2.88;;;24.30;99.90;;;;;;5090439;28;20671;-78
2023/06/09 09:47:19;;;;;;;7.95;2.65;;;24.40;99.60;;;;;;5090168;28;20125;-79
2023/06/09 09:49:54;;;;;;;9.50;2.47;;;24.50;99.10;;;;;;5090937;28;20085;-79
2023/06/09 09:52:28;;;;;;;51.92;6.60;;;24.50;98.30;;;;;;5072632;28;20264;-79
2023/06/09 09:55:08;;;;;;;33.22;7.88;;;24.60;98.70;;;;;;5070859;28;20056;-79
2023/06/09 09:57:35;;;;;;;154.77;24.15;;;24.70;98.10;;;;;;5070294;28;20121;-79
2023/06/09 10:03:53;;;;;;;8.82;3.30;;;24.90;96.40;;;;;;5071002;28;20039;-80
2023/06/09 10:06:27;;;;;;;17.65;4.15;;;25.00;97.10;;;;;;5069799;28;20082;-80
2023/06/09 10:08:53;;;;;;;31.90;7.10;;;25.20;96.40;;;;;;5053835;28;20527;-80
2023/06/09 10:11:20;;;;;;;7.75;2.90;;;25.30;96.80;;;;;;5070054;28;20094;-80
2023/06/09 10:13:46;;;;;;;7.47;2.63;;;25.30;96.10;;;;;;5035877;28;20052;-79
2023/06/09 10:16:12;;;;;;;5.25;2.67;;;25.50;95.80;;;;;;5070191;28;20039;-79
2023/06/09 10:18:41;;;;;;;8.65;3.10;;;25.60;95.50;;;;;;5051839;28;20044;-79
2023/06/09 10:21:07;;;;;;;5.28;2.67;;;26.60;95.10;;;;;;5052993;28;20135;-80
2023/06/09 10:23:33;;;;;;;6.45;2.47;;;25.80;94.90;;;;;;5051149;28;20044;-79
2023/06/09 10:26:01;;;;;;;8.88;3.20;;;25.90;94.60;;;;;;5052702;28;20123;-82
2023/06/09 10:28:27;;;;;;;5.80;3.10;;;26.10;94.20;;;;;;5035191;28;20132;-79
2023/06/09 10:30:53;;;;;;;9.93;3.38;;;26.10;93.60;;;;;;5070601;28;20119;-78
2023/06/09 10:33:24;;;;;;;8.73;2.80;;;26.10;93.50;;;;;;5069870;28;20063;-79
2023/06/09 10:35:59;;;;;;;6.03;2.73;;;26.20;93.30;;;;;;5068797;28;20101;-79
2023/06/09 10:38:28;;;;;;;7.43;2.40;;;26.30;93.30;;;;;;5070907;28;20738;-80
2023/06/09 10:41:15;;;;;;;4.82;2.70;;;26.40;93.50;;;;;;5050747;28;20053;-82
2023/06/09 10:44:18;;;;;;;4.88;2.45;;;26.60;93.70;;;;;;5052329;28;20519;-82
2023/06/09 10:46:52;;;;;;;10.45;2.83;;;26.70;92.70;;;;;;5085225;28;20522;-87
2023/06/09 10:49:25;;;;;;;6.38;2.67;;;26.70;92.90;;;;;;5051023;28;20148;-87
2023/06/09 10:51:51;;;;;;;7.68;2.50;;;26.90;92.20;;;;;;5068846;28;20048;-87
2023/06/09 10:54:18;;;;;;;4.22;2.75;;;27.00;92.70;;;;;;5066995;28;20565;-88
2023/06/09 10:56:52;;;;;;;6.70;2.53;;;27.10;92.40;;;;;;5070019;28;20076;-85
2023/06/09 10:59:24;;;;;;;7.50;3.20;;;27.20;91.50;;;;;;5067565;28;20056;-82
2023/06/09 11:02:02;;;;;;;5.97;2.65;;;27.20;91.40;;;;;;5052439;28;20377;-85
2023/06/09 11:04:49;;;;;;;5.90;2.60;;;27.20;90.70;;;;;;5069244;28;20133;-84
2023/06/09 11:07:29;;;;;;;4.80;2.33;;;27.30;91.20;;;;;;5069407;28;20052;-82
2023/06/09 11:09:58;;;;;;;4.63;2.72;;;27.40;91.40;;;;;;5068744;28;20056;-81
2023/06/09 11:12:44;;;;;;;4.80;2.50;;;27.60;90.80;;;;;;5067756;28;20055;-84
2023/06/09 11:15:10;;;;;;;4.85;2.50;;;27.70;90.30;;;;;;5068533;28;20044;-82
2023/06/09 11:17:39;;;;;;;6.97;2.70;;;27.90;90.60;;;;;;5070418;28;20082;-83
2023/06/09 11:20:14;;;;;;;5.30;3.33;;;28.10;89.60;;;;;;5066863;28;20056;-79
2023/06/09 11:22:48;;;;;;;5.00;2.60;;;28.20;88.90;;;;;;5069670;28;20067;-82
2023/06/09 11:25:17;;;;;;;10.23;2.83;;;28.30;87.60;;;;;;5066590;28;20655;-82
2023/06/09 11:27:47;;;;;;;6.43;2.28;;;28.40;86.90;;;;;;5052172;28;20055;-84
2023/06/09 11:30:18;;;;;;;12.15;4.30;;;28.40;86.80;;;;;;5068273;28;20528;-81
2023/06/09 11:32:56;;;;;;;4.85;2.53;;;28.40;85.00;;;;;;5085537;28;20048;-83
2023/06/09 11:35:31;;;;;;;18.17;3.08;;;28.30;84.10;;;;;;5070875;28;20052;-83
2023/06/09 11:38:23;;;;;;;5.05;2.22;;;28.30;83.10;;;;;;5087024;28;20061;-84
2023/06/09 11:40:50;;;;;;;5.20;2.58;;;28.40;81.30;;;;;;5071583;28;20532;-83
2023/06/09 11:43:19;;;;;;;7.40;2.38;;;28.40;83.10;;;;;;5020766;28;20417;-85
2023/06/09 11:45:48;;;;;;;5.07;2.35;;;28.40;81.80;;;;;;5072673;28;20560;-84
2023/06/09 11:48:15;;;;;;;5.65;2.65;;;28.40;81.50;;;;;;5071091;28;20065;-82
2023/06/09 11:50:47;;;;;;;7.43;2.80;;;28.40;80.20;;;;;;5072866;28;20056;-84
2023/06/09 11:53:18;;;;;;;9.63;2.85;;;28.40;80.00;;;;;;5054619;28;20051;-86
2023/06/09 11:55:48;;;;;;;6.10;2.60;;;28.40;78.20;;;;;;5071629;28;20047;-87
2023/06/09 11:58:16;;;;;;;4.03;2.50;;;28.50;77.90;;;;;;5056024;28;20393;-87
2023/06/09 12:00:45;;;;;;;8.73;2.78;;;28.50;77.80;;;;;;5054121;28;20083;-85
2023/06/09 12:03:12;;;;;;;13.07;3.38;;;28.50;77.90;;;;;;5073497;28;20080;-86
2023/06/09 12:05:38;;;;;;;7.63;2.33;;;28.60;78.20;;;;;;5087926;28;20477;-87
2023/06/09 12:08:10;;;;;;;4.10;2.15;;;29.20;77.20;;;;;;5071745;28;20136;-84
2023/06/09 12:10:36;;;;;;;4.45;2.55;;;28.80;76.20;;;;;;5054199;28;20119;-85
2023/06/09 12:13:02;;;;;;;5.43;2.28;;;29.00;75.10;;;;;;5071370;28;20089;-82
2023/06/09 12:15:28;;;;;;;7.45;2.58;;;29.10;73.80;;;;;;5054504;28;20048;-82
2023/06/09 12:17:56;;;;;;;6.68;2.70;;;29.20;73.30;;;;;;5071199;28;20045;-83
2023/06/09 12:20:29;;;;;;;5.10;2.30;;;29.30;72.80;;;;;;5055436;28;20082;-84
2023/06/09 12:23:06;;;;;;;4.70;2.53;;;30.80;72.90;;;;;;5070595;28;20075;-85
2023/06/09 12:25:45;;;;;;;3.05;2.08;;;29.50;69.10;;;;;;5071542;28;20106;-85
2023/06/09 12:28:17;;;;;;;3.65;2.75;;;29.50;68.80;;;;;;5071764;28;20044;-88
2023/06/09 12:30:47;;;;;;;5.35;2.58;;;29.50;70.00;;;;;;5055986;28;20032;-94
2023/06/09 12:33:16;;;;;;;4.43;2.35;;;29.50;70.30;;;;;;5056350;28;20043;-88
2023/06/09 12:36:05;;;;;;;4.65;2.35;;;29.60;69.70;;;;;;5071149;28;20037;-91
2023/06/09 12:38:39;;;;;;;5.50;2.60;;;29.60;68.30;;;;;;5072929;28;20056;-94
2023/06/09 12:41:16;;;;;;;3.60;2.15;;;29.50;68.70;;;;;;5053521;28;20102;-84
2023/06/09 12:43:59;;;;;;;6.03;2.63;;;29.50;68.70;;;;;;5054897;28;20139;-84
2023/06/09 12:46:40;;;;;;;6.30;2.92;;;29.60;67.70;;;;;;5071867;28;20040;-88
2023/06/09 12:49:08;;;;;;;4.72;2.33;;;29.70;68.30;;;;;;5072396;28;20447;-91
2023/06/09 12:51:40;;;;;;;4.22;2.28;;;28.80;67.90;;;;;;5038952;28;20576;-90
2023/06/09 12:54:07;;;;;;;7.45;2.58;;;29.90;68.90;;;;;;5054036;28;20101;-90